Time;durP1;ratioP1;P1;durP2;ratioP2;P2;SDS_P1;SDS_P2;PMS_P1;PMS_P2;Temp;Humidity;BMP_temperature;BMP_pressure;BME280_temperature;BME280_humidity;BME280_pressure;Samples;Min_cycle;Max_cycle;Signal;HPM_P1;HPM_P2
2024/01/16 00:00:31;;;;;;;86.40;51.45;;;;;;;1.28;100.00;98479.31;5029340;28;20029;-74
2024/01/16 00:02:57;;;;;;;81.03;49.40;;;;;;;1.19;100.00;98444.44;5029514;28;20041;-73
2024/01/16 00:05:23;;;;;;;75.78;45.85;;;;;;;1.53;100.00;98490.59;5027449;28;20033;-74
2024/01/16 00:07:48;;;;;;;83.93;51.85;;;;;;;1.28;100.00;98460.13;5011644;28;20045;-74
2024/01/16 00:10:14;;;;;;;85.45;51.28;;;;;;;1.52;100.00;98473.94;5029581;28;20021;-74
2024/01/16 00:12:42;;;;;;;87.70;53.42;;;;;;;1.51;100.00;98473.09;5029799;28;20052;-74
2024/01/16 00:15:08;;;;;;;88.55;54.55;;;;;;;1.35;100.00;98456.66;5028184;28;20067;-74
2024/01/16 00:17:34;;;;;;;85.45;53.13;;;;;;;1.36;100.00;98445.81;5029614;28;20036;-74
2024/01/16 00:20:00;;;;;;;80.72;52.33;;;;;;;1.50;100.00;98490.66;5028910;28;20037;-74
2024/01/16 00:22:28;;;;;;;86.80;53.65;;;;;;;1.38;100.00;98465.81;5029115;28;20053;-75
2024/01/16 00:24:54;;;;;;;91.05;56.10;;;;;;;1.26;100.00;98436.81;5027855;28;20038;-75
2024/01/16 00:27:19;;;;;;;92.65;58.90;;;;;;;1.39;100.00;98490.81;5029310;28;21539;-75
2024/01/16 00:29:45;;;;;;;92.50;58.75;;;;;;;1.37;100.00;98475.00;5029018;28;20033;-74
2024/01/16 00:32:10;;;;;;;82.95;51.20;;;;;;;1.13;100.00;98484.56;5029329;28;20518;-74
2024/01/16 00:34:36;;;;;;;76.47;49.25;;;;;;;1.23;100.00;98484.38;5029531;28;20052;-73
2024/01/16 00:37:01;;;;;;;75.15;46.65;;;;;;;1.31;100.00;98477.59;5028723;28;20123;-74
2024/01/16 00:39:26;;;;;;;78.88;46.63;;;;;;;1.03;100.00;98428.81;5028826;28;20423;-73
2024/01/16 00:41:52;;;;;;;74.55;46.83;;;;;;;1.32;100.00;98473.41;5028979;28;20427;-77
2024/01/16 00:44:17;;;;;;;88.78;53.90;;;;;;;1.13;100.00;98499.56;5028716;28;20040;-77
2024/01/16 00:46:43;;;;;;;84.18;53.30;;;;;;;1.10;100.00;98485.41;5029377;28;20450;-74
2024/01/16 00:49:09;;;;;;;78.68;49.38;;;;;;;1.08;100.00;98441.25;5011250;28;20029;-73
2024/01/16 00:51:34;;;;;;;75.78;48.08;;;;;;;1.31;100.00;98470.06;5029583;28;20041;-77
2024/01/16 00:54:00;;;;;;;69.45;44.03;;;;;;;1.35;100.00;98478.34;5027808;28;20018;-75
2024/01/16 00:56:27;;;;;;;61.25;38.20;;;;;;;1.04;100.00;98434.66;5028651;28;20057;-73
2024/01/16 00:58:53;;;;;;;58.75;35.70;;;;;;;0.84;100.00;98442.44;5011193;28;20034;-74
2024/01/16 01:01:19;;;;;;;53.90;35.63;;;;;;;1.13;100.00;98470.34;5028343;28;20179;-75
2024/01/16 01:03:45;;;;;;;55.10;35.03;;;;;;;0.61;100.00;98427.78;5028779;28;20535;-74
2024/01/16 01:06:11;;;;;;;54.58;34.50;;;;;;;1.07;100.00;98442.13;5028878;28;20139;-74
2024/01/16 01:08:37;;;;;;;55.05;33.72;;;;;;;0.90;100.00;98442.38;5011233;28;21165;-74
2024/01/16 01:11:02;;;;;;;48.05;30.38;;;;;;;0.96;100.00;98419.78;5028230;28;20029;-74
2024/01/16 01:13:28;;;;;;;49.72;30.25;;;;;;;0.96;100.00;98402.25;5011233;28;20104;-74
2024/01/16 01:15:53;;;;;;;57.03;33.50;;;;;;;0.81;100.00;98367.50;5011025;28;20418;-73
2024/01/16 01:18:19;;;;;;;72.72;39.42;;;;;;;1.10;100.00;98399.53;5028601;28;20052;-72
2024/01/16 01:20:45;;;;;;;54.58;32.30;;;;;;;1.21;100.00;98393.50;5028493;28;20491;-75
2024/01/16 01:23:10;;;;;;;47.10;28.33;;;;;;;0.81;100.00;98420.81;5028725;28;20506;-75
2024/01/16 01:25:35;;;;;;;45.22;28.30;;;;;;;0.83;100.00;98410.81;5028866;28;20411;-74
2024/01/16 01:28:01;;;;;;;44.28;29.95;;;;;;;0.92;100.00;98409.81;5027987;28;20037;-74
2024/01/16 01:30:26;;;;;;;47.00;30.85;;;;;;;0.85;100.00;98422.41;5011285;28;20471;-74
2024/01/16 01:32:52;;;;;;;47.95;31.88;;;;;;;1.08;100.00;98397.06;5028213;28;20080;-74
2024/01/16 01:35:19;;;;;;;52.78;33.60;;;;;;;0.95;100.00;98365.63;5012931;28;20037;-75
2024/01/16 01:37:45;;;;;;;52.33;33.75;;;;;;;0.93;100.00;98399.00;5014756;28;20032;-74
2024/01/16 01:40:12;;;;;;;48.42;32.20;;;;;;;1.13;100.00;98390.31;5031922;28;20037;-76
2024/01/16 01:42:38;;;;;;;55.92;35.22;;;;;;;0.93;100.00;98337.31;5032198;28;20056;-75
2024/01/16 01:45:03;;;;;;;55.63;35.28;;;;;;;1.25;100.00;98372.59;5031410;28;20418;-74
2024/01/16 01:47:30;;;;;;;56.40;36.08;;;;;;;0.99;100.00;98353.88;5032216;28;20517;-74
2024/01/16 01:49:57;;;;;;;55.03;36.17;;;;;;;0.70;100.00;98325.16;5015144;28;20038;-76
2024/01/16 01:52:23;;;;;;;55.38;35.85;;;;;;;0.86;100.00;98311.56;5032497;28;20033;-74
2024/01/16 01:54:48;;;;;;;53.65;34.85;;;;;;;1.26;100.00;98330.88;5031855;28;20034;-74
2024/01/16 01:57:14;;;;;;;61.38;37.25;;;;;;;1.07;100.00;98235.31;5014206;28;20035;-74
2024/01/16 01:59:40;;;;;;;57.53;37.92;;;;;;;1.20;100.00;98254.28;5031526;28;20035;-76
2024/01/16 02:02:05;;;;;;;54.88;36.75;;;;;;;1.25;100.00;98285.00;5031582;28;20104;-74
2024/01/16 02:04:31;;;;;;;58.05;37.03;;;;;;;1.17;100.00;98293.53;5032030;28;20033;-74
2024/01/16 02:06:58;;;;;;;58.22;38.63;;;;;;;1.10;100.00;98280.31;5029775;28;20064;-75
2024/01/16 02:09:23;;;;;;;62.90;39.97;;;;;;;0.88;100.00;98241.53;5031586;28;20029;-74
2024/01/16 02:11:49;;;;;;;59.45;38.75;;;;;;;1.18;100.00;98293.50;5012968;28;20047;-74
2024/01/16 02:14:14;;;;;;;60.53;38.63;;;;;;;1.21;100.00;98290.13;5013944;28;20037;-74
2024/01/16 02:16:41;;;;;;;61.30;38.33;;;;;;;1.36;100.00;98290.66;5013826;28;20112;-74
2024/01/16 02:19:08;;;;;;;60.50;37.70;;;;;;;1.04;100.00;98207.88;5031480;28;20083;-74
2024/01/16 02:21:51;;;;;;;59.38;38.33;;;;;;;1.15;100.00;98213.50;5013896;28;20553;-74
2024/01/16 02:24:18;;;;;;;54.70;36.90;;;;;;;1.00;100.00;98233.81;5013264;28;20107;-74
2024/01/16 02:26:44;;;;;;;56.90;37.83;;;;;;;1.31;100.00;98249.88;5031199;28;20554;-75
2024/01/16 02:29:09;;;;;;;56.67;37.42;;;;;;;1.46;100.00;98248.75;5013966;28;20133;-74
2024/01/16 02:31:35;;;;;;;65.78;40.70;;;;;;;1.40;100.00;98252.22;5013647;28;20044;-74
2024/01/16 02:34:01;;;;;;;58.63;38.67;;;;;;;1.17;100.00;98266.81;5031459;28;20401;-74
2024/01/16 02:36:27;;;;;;;60.95;39.08;;;;;;;1.36;100.00;98258.13;5013439;28;20112;-78
2024/01/16 02:38:53;;;;;;;64.75;40.47;;;;;;;1.27;100.00;98272.50;5013779;28;20083;-75
2024/01/16 02:41:19;;;;;;;62.65;38.65;;;;;;;1.40;100.00;98253.88;5031470;28;20033;-74
2024/01/16 02:43:45;;;;;;;62.75;39.45;;;;;;;1.33;100.00;98275.69;5012017;28;20052;-73
2024/01/16 02:46:10;;;;;;;62.05;39.03;;;;;;;1.33;100.00;98240.66;5013020;28;20022;-74
2024/01/16 02:48:36;;;;;;;60.42;39.00;;;;;;;1.08;100.00;98209.47;5013448;28;20128;-75
2024/01/16 02:51:03;;;;;;;60.20;38.33;;;;;;;1.29;100.00;98235.75;5013419;28;20510;-74
2024/01/16 02:53:29;;;;;;;60.28;38.63;;;;;;;0.93;100.00;98181.44;5030549;28;20113;-75
2024/01/16 02:55:54;;;;;;;59.72;37.95;;;;;;;1.37;100.00;98253.94;5013444;28;20036;-75
2024/01/16 02:58:21;;;;;;;60.33;37.95;;;;;;;1.38;100.00;98186.34;5030772;28;20025;-74
2024/01/16 03:00:46;;;;;;;61.45;38.97;;;;;;;1.08;100.00;98186.97;5028779;28;20041;-74
2024/01/16 03:03:12;;;;;;;62.67;39.58;;;;;;;1.12;100.00;98181.03;5029959;28;20029;-75
2024/01/16 03:05:37;;;;;;;67.28;40.65;;;;;;;1.42;100.00;98222.16;5030664;28;20068;-73
2024/01/16 03:08:03;;;;;;;64.28;38.50;;;;;;;1.49;100.00;98216.16;5012760;28;20103;-74
2024/01/16 03:10:28;;;;;;;68.78;40.72;;;;;;;1.49;100.00;98238.69;5031035;28;20029;-73
2024/01/16 03:12:54;;;;;;;65.55;42.08;;;;;;;1.29;100.00;98228.25;5030583;28;20025;-74
2024/01/16 03:15:20;;;;;;;66.68;42.42;;;;;;;1.22;100.00;98184.19;5012920;28;20116;-74
2024/01/16 03:17:45;;;;;;;65.88;41.17;;;;;;;1.19;100.00;98206.78;5030219;28;20128;-73
2024/01/16 03:20:11;;;;;;;68.43;42.10;;;;;;;1.15;100.00;98155.16;5030159;28;20033;-74
2024/01/16 03:22:37;;;;;;;69.50;41.58;;;;;;;1.28;100.00;98176.56;5029731;28;20400;-75
2024/01/16 03:25:02;;;;;;;70.70;42.60;;;;;;;1.03;100.00;98147.88;5030106;28;20057;-73
2024/01/16 03:27:29;;;;;;;67.45;41.40;;;;;;;1.03;100.00;98113.69;5030444;28;20033;-75
2024/01/16 03:29:56;;;;;;;67.85;41.90;;;;;;;1.18;100.00;98148.41;5030369;28;20048;-75
2024/01/16 03:32:21;;;;;;;71.00;42.30;;;;;;;1.16;100.00;98114.25;5013017;28;20116;-75
2024/01/16 03:34:46;;;;;;;68.25;42.20;;;;;;;1.15;100.00;98118.44;5012538;28;20028;-74
2024/01/16 03:37:12;;;;;;;67.82;42.13;;;;;;;1.35;100.00;98071.28;5012273;28;20036;-75
2024/01/16 03:39:37;;;;;;;78.63;45.20;;;;;;;1.32;100.00;98025.50;5029781;28;20077;-73
2024/01/16 03:42:03;;;;;;;74.10;44.70;;;;;;;1.06;100.00;97981.06;5029248;28;20064;-77
2024/01/16 03:44:28;;;;;;;71.80;42.80;;;;;;;1.23;100.00;97961.50;5012638;28;20116;-75
2024/01/16 03:46:54;;;;;;;72.55;42.95;;;;;;;1.55;100.00;97971.56;5029885;28;20473;-75
2024/01/16 03:49:20;;;;;;;70.45;42.88;;;;;;;1.40;100.00;97956.91;5012477;28;20029;-74
2024/01/16 03:51:57;;;;;;;73.50;42.20;;;;;;;1.42;100.00;97926.84;5029079;28;20034;-75
2024/01/16 03:54:23;;;;;;;68.78;41.22;;;;;;;1.49;100.00;97910.81;5028053;28;20064;-74
2024/01/16 03:56:48;;;;;;;75.43;43.55;;;;;;;1.37;100.00;97896.94;5011995;28;20407;-75
2024/01/16 03:59:13;;;;;;;71.82;42.90;;;;;;;1.70;100.00;97936.09;5030287;28;20038;-75
2024/01/16 04:01:39;;;;;;;72.53;42.83;;;;;;;1.53;100.00;97952.41;5029877;28;20033;-75
2024/01/16 04:04:07;;;;;;;72.03;41.97;;;;;;;1.72;100.00;97956.91;5011709;28;20112;-75
2024/01/16 04:06:32;;;;;;;69.43;41.30;;;;;;;1.47;100.00;97905.84;5012670;28;20567;-74
2024/01/16 04:08:58;;;;;;;66.45;42.05;;;;;;;1.73;100.00;97977.78;5029841;28;20013;-78
2024/01/16 04:11:23;;;;;;;70.18;42.28;;;;;;;1.55;100.00;97976.56;5029327;28;20033;-75
2024/01/16 04:13:49;;;;;;;66.97;43.08;;;;;;;1.59;100.00;97948.09;5029237;28;20087;-75
2024/01/16 04:16:15;;;;;;;67.75;41.30;;;;;;;1.47;100.00;97977.59;5029680;28;20086;-74
2024/01/16 04:18:42;;;;;;;71.28;40.42;;;;;;;1.49;100.00;97993.38;5029803;28;20454;-77
2024/01/16 04:21:08;;;;;;;76.43;43.83;;;;;;;1.32;100.00;97971.28;5027847;28;20040;-75
2024/01/16 04:23:33;;;;;;;78.45;46.13;;;;;;;1.45;100.00;97974.31;5018264;28;20436;-74
2024/01/16 04:25:59;;;;;;;80.20;46.67;;;;;;;2.19;100.00;97994.94;5008535;28;20503;-76
2024/01/16 04:28:25;;;;;;;59.83;37.13;;;;;;;2.72;100.00;97963.34;5008967;28;20045;-71
2024/01/16 04:30:51;;;;;;;73.70;44.88;;;;;;;1.99;100.00;97994.63;4991249;28;20030;-70
2024/01/16 04:33:16;;;;;;;76.07;45.47;;;;;;;1.47;100.00;97993.44;4992157;28;20037;-75
2024/01/16 04:35:42;;;;;;;80.78;47.70;;;;;;;1.40;100.00;98003.63;5006610;28;20042;-76
2024/01/16 04:38:10;;;;;;;79.45;47.63;;;;;;;1.42;100.00;98057.81;4995042;28;20037;-74
2024/01/16 04:40:35;;;;;;;79.68;48.58;;;;;;;1.72;100.00;98062.06;5017674;28;20041;-74
2024/01/16 04:43:01;;;;;;;77.82;47.20;;;;;;;1.61;100.00;98045.66;5019939;28;20040;-74
2024/01/16 04:45:26;;;;;;;76.68;48.20;;;;;;;1.39;100.00;98039.50;4994771;28;20109;-71
2024/01/16 04:47:51;;;;;;;84.63;50.97;;;;;;;1.20;100.00;98028.28;5012383;28;20120;-74
2024/01/16 04:50:18;;;;;;;79.68;49.70;;;;;;;1.52;100.00;98049.22;5014226;28;20029;-74
2024/01/16 04:52:43;;;;;;;84.30;48.55;;;;;;;1.52;100.00;98073.44;4996172;28;20033;-73
2024/01/16 04:55:09;;;;;;;76.95;47.55;;;;;;;1.42;100.00;98072.81;5013941;28;20037;-72
2024/01/16 04:57:34;;;;;;;99.50;58.70;;;;;;;1.25;100.00;98069.84;4992001;28;20042;-71
2024/01/16 04:59:59;;;;;;;78.13;49.08;;;;;;;1.03;100.00;98043.66;5012984;28;20029;-72
2024/01/16 05:02:25;;;;;;;81.40;49.58;;;;;;;1.20;100.00;98045.78;5018207;28;20462;-71
2024/01/16 05:04:51;;;;;;;128.95;80.35;;;;;;;1.28;100.00;98073.97;5015179;28;20053;-71
2024/01/16 05:07:20;;;;;;;97.07;57.35;;;;;;;1.31;100.00;98078.91;4994944;28;20586;-71
2024/01/16 05:09:46;;;;;;;89.43;52.30;;;;;;;0.76;100.00;98024.25;4994912;28;20025;-72
2024/01/16 05:12:12;;;;;;;86.13;52.70;;;;;;;1.36;100.00;98075.47;4996750;28;20037;-71
2024/01/16 05:14:37;;;;;;;87.03;54.42;;;;;;;1.55;100.00;98070.84;4998705;28;20099;-72
2024/01/16 05:17:03;;;;;;;88.82;56.17;;;;;;;1.25;100.00;98059.03;5018503;28;20439;-71
2024/01/16 05:19:28;;;;;;;81.05;48.83;;;;;;;1.45;100.00;98055.22;5018600;28;20041;-70
2024/01/16 05:21:54;;;;;;;109.00;62.63;;;;;;;1.49;100.00;98086.81;5001231;28;20030;-71
2024/01/16 05:24:19;;;;;;;89.82;56.42;;;;;;;1.41;100.00;98061.16;5014455;28;20072;-71
2024/01/16 05:26:45;;;;;;;91.72;54.33;;;;;;;1.30;100.00;98108.13;4997789;28;20084;-71
2024/01/16 05:29:11;;;;;;;90.45;52.92;;;;;;;1.07;100.00;98065.25;5011480;28;20062;-72
2024/01/16 05:31:43;;;;;;;88.05;50.72;;;;;;;1.10;100.00;98060.19;5012999;28;20049;-72
2024/01/16 05:34:09;;;;;;;82.50;49.10;;;;;;;1.24;100.00;98087.41;5012827;28;20124;-71
2024/01/16 05:36:34;;;;;;;85.95;50.40;;;;;;;1.07;100.00;98087.75;4994851;28;20512;-71
2024/01/16 05:39:00;;;;;;;74.22;47.38;;;;;;;1.04;100.00;98041.97;5011976;28;20042;-72
2024/01/16 05:41:26;;;;;;;74.70;45.35;;;;;;;1.33;100.00;98067.16;5014668;28;20093;-70
2024/01/16 05:43:51;;;;;;;74.15;46.15;;;;;;;1.27;100.00;98070.63;5010785;28;20036;-70
2024/01/16 05:46:18;;;;;;;70.47;40.90;;;;;;;1.81;100.00;98042.69;5014074;28;20112;-70
2024/01/16 05:48:43;;;;;;;59.03;36.85;;;;;;;2.37;100.00;98002.78;5011220;28;20042;-71
2024/01/16 05:51:08;;;;;;;39.33;25.42;;;;;;;3.47;100.00;97951.75;5011321;28;20057;-69
2024/01/16 05:53:34;;;;;;;25.27;16.33;;;;;;;4.14;100.00;97949.50;5011383;28;20473;-70
2024/01/16 05:56:05;;;;;;;22.35;14.60;;;;;;;4.28;100.00;97967.41;5010831;28;20486;-69
2024/01/16 05:58:35;;;;;;;17.17;11.65;;;;;;;4.35;100.00;97983.94;5011275;28;20049;-70
2024/01/16 06:01:01;;;;;;;13.65;9.82;;;;;;;4.68;100.00;97972.63;5010656;28;20069;-70
2024/01/16 06:03:26;;;;;;;13.80;9.45;;;;;;;4.89;100.00;98018.84;4993117;28;20053;-71
2024/01/16 06:05:51;;;;;;;9.85;7.30;;;;;;;5.70;100.00;98015.66;4993020;28;20500;-70
2024/01/16 06:08:17;;;;;;;10.82;7.78;;;;;;;5.41;100.00;98070.59;5010601;28;20022;-70
2024/01/16 06:10:42;;;;;;;9.02;5.72;;;;;;;5.71;100.00;98066.88;4993358;28;20407;-69
2024/01/16 06:13:08;;;;;;;7.82;5.50;;;;;;;5.72;100.00;98101.28;5010053;28;20037;-70
2024/01/16 06:15:33;;;;;;;7.85;4.85;;;;;;;6.22;100.00;98079.13;5010428;28;20099;-72
2024/01/16 06:17:58;;;;;;;5.47;4.20;;;;;;;6.35;100.00;98151.72;5010365;28;20037;-69
2024/01/16 06:20:25;;;;;;;15.55;9.32;;;;;;;6.51;100.00;98174.63;4993172;28;20397;-70
2024/01/16 06:22:51;;;;;;;12.30;6.85;;;;;;;7.61;100.00;98217.81;5013398;28;20137;-70
2024/01/16 06:25:16;;;;;;;8.20;3.60;;;;;;;8.43;100.00;98203.03;5030657;28;20104;-70
2024/01/16 06:27:41;;;;;;;4.97;3.50;;;;;;;9.43;100.00;98272.31;5011942;28;20124;-70
2024/01/16 06:30:08;;;;;;;16.27;10.10;;;;;;;9.84;100.00;98325.19;5030239;28;20045;-70
2024/01/16 06:32:33;;;;;;;9.07;6.72;;;;;;;9.48;100.00;98371.00;5030054;28;20053;-71
2024/01/16 06:34:59;;;;;;;8.02;5.30;;;;;;;9.70;100.00;98356.34;5012195;28;20487;-70
2024/01/16 06:37:24;;;;;;;6.75;4.15;;;;;;;10.06;100.00;98346.84;5012120;28;20037;-69
2024/01/16 06:39:49;;;;;;;4.13;3.00;;;;;;;10.28;100.00;98392.28;5029677;28;20103;-70
2024/01/16 06:42:15;;;;;;;5.75;4.10;;;;;;;10.21;100.00;98393.50;5012984;28;20029;-70
2024/01/16 06:44:40;;;;;;;3.97;3.20;;;;;;;10.14;100.00;98338.88;5013053;28;20025;-70
2024/01/16 06:47:06;;;;;;;5.22;4.72;;;;;;;10.58;100.00;98366.97;5030351;28;20117;-70
2024/01/16 06:49:31;;;;;;;6.13;4.50;;;;;;;10.39;100.00;98403.53;5029743;28;20040;-70
2024/01/16 06:51:57;;;;;;;5.00;3.97;;;;;;;10.23;100.00;98399.31;5012691;28;20045;-70
2024/01/16 06:54:23;;;;;;;8.88;5.35;;;;;;;10.46;100.00;98450.56;5012086;28;20072;-70
2024/01/16 06:56:49;;;;;;;22.38;15.27;;;;;;;10.43;100.00;98425.31;5030370;28;20025;-70
2024/01/16 06:59:16;;;;;;;23.10;17.17;;;;;;;9.95;100.00;98414.28;5012104;28;20029;-70
2024/01/16 07:01:41;;;;;;;37.85;26.50;;;;;;;8.02;100.00;98502.69;5012333;28;20025;-70
2024/01/16 07:04:06;;;;;;;13.27;9.52;;;;;;;7.92;100.00;98491.31;5012076;28;20025;-71
2024/01/16 07:06:32;;;;;;;27.77;18.38;;;;;;;7.71;100.00;98477.81;5030115;28;20103;-70
2024/01/16 07:08:57;;;;;;;11.43;8.85;;;;;;;11.07;100.00;98440.47;5029954;28;20083;-70
2024/01/16 07:11:23;;;;;;;9.90;6.97;;;;;;;12.55;100.00;98454.78;5011373;28;20079;-71
2024/01/16 07:13:48;;;;;;;8.73;7.07;;;;;;;11.93;100.00;98495.84;5029364;28;20562;-71
2024/01/16 07:16:14;;;;;;;12.65;9.45;;;;;;;10.58;100.00;98496.56;5029659;28;20045;-75
2024/01/16 07:18:40;;;;;;;10.32;7.93;;;;;;;11.08;100.00;98530.28;5029111;28;20026;-71
2024/01/16 07:21:19;;;;;;;14.98;11.57;;;;;;;9.45;100.00;98536.81;5028658;28;20462;-71
2024/01/16 07:23:44;;;;;;;6.05;4.63;;;;;;;8.61;100.00;98528.03;5024002;28;20526;-72
2024/01/16 07:26:10;;;;;;;6.72;3.30;;;;;;;8.60;100.00;98537.31;5012086;28;20029;-70
2024/01/16 07:28:35;;;;;;;6.85;3.25;;;;;;;8.65;100.00;98530.38;5028681;28;20033;-71
2024/01/16 07:31:00;;;;;;;8.23;3.60;;;;;;;8.46;100.00;98554.00;5029442;28;20022;-69
2024/01/16 07:33:26;;;;;;;4.18;2.80;;;;;;;8.39;100.00;98563.56;5011293;28;20022;-69
2024/01/16 07:35:52;;;;;;;5.30;3.30;;;;;;;8.14;100.00;98562.91;5029557;28;20499;-71
2024/01/16 07:38:17;;;;;;;7.47;3.10;;;;;;;8.17;100.00;98537.47;5029447;28;20120;-71
2024/01/16 07:40:43;;;;;;;5.90;3.45;;;;;;;8.45;100.00;98606.38;5029087;28;20033;-71
2024/01/16 07:43:08;;;;;;;4.60;3.00;;;;;;;8.17;100.00;98552.66;5029410;28;20037;-72
2024/01/16 07:45:34;;;;;;;4.72;3.47;;;;;;;8.26;100.00;98582.69;5011174;28;20464;-73
2024/01/16 07:47:59;;;;;;;3.22;2.20;;;;;;;8.16;100.00;98524.91;5028713;28;20036;-71
2024/01/16 07:50:24;;;;;;;5.18;2.65;;;;;;;8.19;100.00;98509.56;5011654;28;20041;-70
2024/01/16 07:52:50;;;;;;;4.95;3.05;;;;;;;8.24;100.00;98482.38;5011627;28;20025;-70
2024/01/16 07:55:18;;;;;;;4.80;2.75;;;;;;;7.93;100.00;98500.53;5011588;28;20468;-71
2024/01/16 07:57:43;;;;;;;4.53;3.30;;;;;;;8.06;100.00;98483.94;5028564;28;20033;-71
2024/01/16 08:00:11;;;;;;;7.25;3.42;;;;;;;7.98;100.00;98443.00;5028741;28;20446;-69
2024/01/16 08:02:37;;;;;;;3.75;2.70;;;;;;;8.19;100.00;98467.38;5027748;28;20488;-69
2024/01/16 08:05:04;;;;;;;6.75;3.45;;;;;;;8.15;100.00;98392.47;5011218;28;20059;-69
2024/01/16 08:07:29;;;;;;;5.80;2.97;;;;;;;8.48;100.00;98425.59;5028615;28;20036;-70
2024/01/16 08:09:55;;;;;;;4.65;2.40;;;;;;;8.31;100.00;98423.84;5010971;28;20056;-71
2024/01/16 08:12:20;;;;;;;4.15;2.65;;;;;;;8.48;100.00;98425.59;5028301;28;20484;-70
2024/01/16 08:14:45;;;;;;;4.07;2.72;;;;;;;8.46;100.00;98407.97;5028411;28;20509;-68
2024/01/16 08:17:11;;;;;;;3.60;1.80;;;;;;;7.89;100.00;98383.47;5010659;28;20025;-69
2024/01/16 08:19:36;;;;;;;2.95;2.00;;;;;;;8.03;100.00;98366.88;5028650;28;20029;-69
2024/01/16 08:22:02;;;;;;;6.63;1.92;;;;;;;8.11;100.00;98390.97;5028567;28;20048;-69
2024/01/16 08:24:28;;;;;;;6.78;1.75;;;;;;;7.44;100.00;98382.06;5028437;28;20049;-69
2024/01/16 08:26:53;;;;;;;2.97;1.70;;;;;;;7.19;100.00;98338.47;5028701;28;20041;-70
2024/01/16 08:29:19;;;;;;;4.43;1.33;;;;;;;7.39;100.00;98383.97;5027435;28;20462;-74
2024/01/16 08:31:44;;;;;;;6.72;2.25;;;;;;;7.68;100.00;98424.03;5010511;28;20025;-69
2024/01/16 08:34:10;;;;;;;6.25;1.95;;;;;;;7.59;100.00;98412.59;5027650;28;20037;-70
2024/01/16 08:36:35;;;;;;;2.35;1.33;;;;;;;7.47;100.00;98384.44;5026630;28;20026;-69
2024/01/16 08:39:00;;;;;;;2.42;1.38;;;;;;;7.46;100.00;98473.81;5009939;28;20107;-69
2024/01/16 08:41:26;;;;;;;3.65;1.38;;;;;;;7.05;100.00;98409.75;5027716;28;20033;-69
2024/01/16 08:43:51;;;;;;;2.08;1.63;;;;;;;7.56;100.00;98470.88;5028561;28;20064;-71
2024/01/16 08:46:19;;;;;;;2.20;1.60;;;;;;;7.67;100.00;98483.88;5027444;28;20068;-70
2024/01/16 08:48:45;;;;;;;2.25;1.48;;;;;;;7.80;100.00;98481.69;5010252;28;20410;-69
2024/01/16 08:51:14;;;;;;;2.50;1.70;;;;;;;7.54;100.00;98489.50;5028121;28;20029;-70
2024/01/16 08:53:40;;;;;;;19.35;11.07;;;;;;;7.78;100.00;98509.56;5028338;28;20025;-68
2024/01/16 08:56:08;;;;;;;2.97;2.22;;;;;;;7.62;100.00;98482.44;5028196;28;20108;-70
2024/01/16 08:58:38;;;;;;;3.10;1.50;;;;;;;7.75;100.00;98488.63;5027548;28;20037;-75
2024/01/16 09:01:06;;;;;;;3.28;1.60;;;;;;;8.33;100.00;98518.25;5009493;28;20129;-69
2024/01/16 09:03:32;;;;;;;3.10;1.50;;;;;;;8.17;100.00;98479.25;5005616;28;20411;-70
2024/01/16 09:05:58;;;;;;;2.28;1.40;;;;;;;8.55;100.00;98455.69;5027682;28;20037;-69
2024/01/16 09:08:26;;;;;;;2.83;1.30;;;;;;;8.70;100.00;98512.41;5008975;28;20022;-70
2024/01/16 09:10:51;;;;;;;1.92;1.42;;;;;;;8.36;100.00;98486.94;5028200;28;20072;-69
2024/01/16 09:13:17;;;;;;;2.78;1.73;;;;;;;8.58;100.00;98604.94;5009428;28;20054;-70
2024/01/16 09:15:42;;;;;;;3.92;1.48;;;;;;;8.43;100.00;98610.66;5027963;28;20478;-70
2024/01/16 09:18:08;;;;;;;9.13;5.90;;;;;;;8.28;100.00;98697.34;5027741;28;20376;-71
2024/01/16 09:20:33;;;;;;;2.60;1.60;;;;;;;8.32;100.00;98683.69;5008635;28;20029;-69
2024/01/16 09:22:59;;;;;;;2.78;1.63;;;;;;;8.30;100.00;98693.06;5010057;28;20490;-69
2024/01/16 09:25:24;;;;;;;3.38;1.65;;;;;;;8.29;100.00;98698.19;5027759;28;20029;-70
2024/01/16 09:27:50;;;;;;;2.35;1.27;;;;;;;8.36;100.00;98695.34;5027835;28;20048;-68
2024/01/16 09:30:16;;;;;;;1.20;0.90;;;;;;;8.11;100.00;98636.44;5027671;28;20388;-68
2024/01/16 09:32:42;;;;;;;2.97;1.65;;;;;;;8.59;100.00;98657.25;5027005;28;20037;-68
2024/01/16 09:35:09;;;;;;;3.00;1.48;;;;;;;8.72;100.00;98693.84;5027662;28;20033;-67
2024/01/16 09:37:35;;;;;;;2.67;1.40;;;;;;;8.37;100.00;98666.63;5027306;28;20060;-67
2024/01/16 09:40:00;;;;;;;3.75;1.67;;;;;;;8.32;100.00;98688.75;5027351;28;20033;-69
2024/01/16 09:42:27;;;;;;;3.05;1.13;;;;;;;8.11;100.00;98663.44;5027732;28;20029;-68
2024/01/16 09:44:55;;;;;;;2.85;1.30;;;;;;;8.66;100.00;98704.25;5028017;28;20114;-68
2024/01/16 09:47:21;;;;;;;3.50;1.55;;;;;;;8.48;100.00;98669.53;5027116;28;20026;-69
2024/01/16 09:49:46;;;;;;;1.67;0.88;;;;;;;8.69;100.00;98723.56;5009836;28;20023;-69
2024/01/16 09:52:12;;;;;;;2.00;1.30;;;;;;;8.64;100.00;98753.31;5009847;28;20150;-69
2024/01/16 09:54:38;;;;;;;2.92;1.25;;;;;;;8.51;100.00;98692.22;5027710;28;20033;-73
2024/01/16 09:57:06;;;;;;;2.97;1.20;;;;;;;8.71;100.00;98757.25;5027785;28;20116;-69
2024/01/16 09:59:32;;;;;;;1.20;0.90;;;;;;;8.60;100.00;98755.16;5030806;28;20021;-70
2024/01/16 10:02:00;;;;;;;2.53;1.17;;;;;;;8.56;100.00;98778.94;5031400;28;20442;-69
2024/01/16 10:04:27;;;;;;;2.45;1.50;;;;;;;8.88;100.00;98819.91;5013484;28;20490;-71
2024/01/16 10:06:54;;;;;;;1.88;1.15;;;;;;;8.59;100.00;98819.38;5030760;28;20108;-70
2024/01/16 10:09:19;;;;;;;4.30;1.55;;;;;;;8.33;100.00;98771.44;5029689;28;20030;-66
2024/01/16 10:11:45;;;;;;;2.08;1.30;;;;;;;8.67;100.00;98841.84;5031203;28;20033;-70
2024/01/16 10:14:11;;;;;;;3.40;2.13;;;;;;;8.99;100.00;98899.72;5030909;28;20045;-71
2024/01/16 10:16:59;;;;;;;4.43;1.65;;;;;;;9.03;100.00;98913.91;5030432;28;20033;-70
2024/01/16 10:19:26;;;;;;;2.47;1.90;;;;;;;9.24;100.00;98900.41;4679462;28;10000300;-71
2024/01/16 10:21:51;;;;;;;3.63;2.15;;;;;;;9.10;100.00;98861.25;5009369;28;20044;-72
2024/01/16 10:24:17;;;;;;;3.20;1.42;;;;;;;9.28;100.00;98912.06;5027452;28;20037;-75
2024/01/16 10:26:42;;;;;;;2.40;1.50;;;;;;;9.09;100.00;98920.47;5028048;28;20030;-70
2024/01/16 10:29:09;;;;;;;3.97;2.10;;;;;;;9.30;100.00;98944.97;5029061;28;20403;-70
2024/01/16 10:31:34;;;;;;;3.53;1.42;;;;;;;9.00;100.00;98930.94;5029026;28;20411;-71
2024/01/16 10:34:00;;;;;;;3.38;1.50;;;;;;;9.37;100.00;98976.78;5027435;28;20045;-70
2024/01/16 10:36:25;;;;;;;1.98;1.10;;;;;;;9.07;100.00;98968.66;5028302;28;20105;-71
2024/01/16 10:38:57;;;;;;;2.60;1.20;;;;;;;9.34;100.00;99005.66;5026279;28;20048;-70
2024/01/16 10:41:26;;;;;;;5.07;2.30;;;;;;;9.38;100.00;99039.31;5027265;28;20115;-70
2024/01/16 10:44:07;;;;;;;3.85;2.13;;;;;;;9.33;100.00;98995.56;5026945;28;20037;-70
2024/01/16 10:46:32;;;;;;;2.83;2.00;;;;;;;9.66;100.00;99054.31;5010233;28;20060;-69
2024/01/16 10:49:03;;;;;;;1.67;1.13;;;;;;;9.71;100.00;98991.50;5010884;28;20072;-72
2024/01/16 10:51:30;;;;;;;2.88;2.10;;;;;;;10.00;100.00;99045.25;5030440;28;20059;-69
2024/01/16 10:54:10;;;;;;;3.50;1.50;;;;;;;9.70;100.00;99064.28;5028994;28;20069;-70
2024/01/16 10:56:36;;;;;;;1.70;1.05;;;;;;;9.26;100.00;99060.06;5010156;28;20030;-70
2024/01/16 10:59:14;;;;;;;3.58;2.20;;;;;;;9.81;100.00;99180.59;5012445;28;20132;-70
2024/01/16 11:01:43;;;;;;;3.72;2.15;;;;;;;9.94;100.00;99185.16;5030245;28;20035;-69
2024/01/16 11:04:09;;;;;;;2.03;1.50;;;;;;;9.73;100.00;99228.25;5030122;28;20025;-70
2024/01/16 11:06:35;;;;;;;2.08;1.13;;;;;;;9.73;100.00;99220.66;5029863;28;20026;-70
2024/01/16 11:09:02;;;;;;;2.00;1.15;;;;;;;9.97;100.00;99256.13;5029150;28;20028;-70
2024/01/16 11:11:28;;;;;;;3.47;2.08;;;;;;;9.95;100.00;99221.50;5029460;28;20044;-70
2024/01/16 11:13:55;;;;;;;3.20;1.33;;;;;;;10.05;100.00;99302.38;5011141;28;20650;-71
2024/01/16 11:16:21;;;;;;;2.10;1.48;;;;;;;9.86;100.00;99268.41;5029665;28;20044;-69
2024/01/16 11:18:46;;;;;;;4.18;2.20;;;;;;;10.41;100.00;99298.50;5029784;28;20105;-70